createdAt,value
2024-01-07T00:00:38.032Z,64.33
2024-01-07T00:01:37.999Z,67.65
2024-01-07T00:02:38.006Z,68.88
2024-01-07T00:03:38.057Z,68.30
2024-01-07T00:04:38.147Z,70.37
2024-01-07T00:05:38.112Z,69.76
2024-01-07T00:06:38.160Z,67.28
2024-01-07T00:07:38.139Z,69.79
2024-01-07T00:08:38.143Z,69.65
2024-01-07T00:09:38.207Z,71.11
2024-01-07T00:10:38.176Z,72.05
2024-01-07T00:11:38.201Z,68.71
2024-01-07T00:12:38.241Z,69.88
2024-01-07T00:13:38.234Z,68.78
2024-01-07T00:14:38.236Z,71.18
2024-01-07T00:15:38.323Z,71.57
2024-01-07T00:16:38.386Z,69.04
2024-01-07T00:17:38.412Z,69.28
2024-01-07T00:18:38.439Z,71.94
2024-01-07T00:19:38.389Z,69.51
2024-01-07T00:20:38.370Z,68.29
2024-01-07T00:21:38.424Z,69.27
2024-01-07T00:22:38.468Z,70.66
2024-01-07T00:23:38.440Z,69.58
2024-01-07T00:24:38.519Z,68.51
2024-01-07T00:25:38.486Z,69.29
2024-01-07T00:26:38.499Z,65.29
2024-01-07T00:27:38.524Z,69.36
2024-01-07T00:28:38.617Z,67.69
2024-01-07T00:29:38.539Z,65.79
2024-01-07T00:30:38.660Z,65.35
2024-01-07T00:31:38.737Z,65.54
2024-01-07T00:32:38.642Z,66.35
2024-01-07T00:33:38.760Z,65.74
2024-01-07T00:34:38.804Z,66.94
2024-01-07T00:35:38.653Z,62.61
2024-01-07T00:36:38.721Z,64.06
2024-01-07T00:37:38.681Z,61.89
2024-01-07T00:38:38.713Z,63.59
2024-01-07T00:39:38.743Z,64.27
2024-01-07T00:40:38.837Z,64.41
2024-01-07T00:41:38.771Z,63.16
2024-01-07T00:42:38.777Z,61.66
2024-01-07T00:43:38.795Z,63.10
2024-01-07T00:44:38.803Z,61.64
2024-01-07T00:45:38.904Z,60.68
2024-01-07T00:46:38.854Z,61.51
2024-01-07T00:47:38.961Z,61.90
2024-01-07T00:48:39.037Z,62.27
2024-01-07T00:49:38.971Z,63.72
2024-01-07T00:50:38.906Z,62.71
2024-01-07T00:51:38.960Z,63.30
2024-01-07T00:52:39.046Z,58.71
2024-01-07T00:53:38.953Z,59.94
2024-01-07T00:54:39.020Z,61.29
2024-01-07T00:55:39.005Z,61.07
2024-01-07T00:56:39.026Z,61.03
2024-01-07T00:57:39.111Z,59.38
2024-01-07T00:58:39.041Z,60.69
2024-01-07T00:59:39.064Z,61.59
2024-01-07T01:00:39.200Z,61.04
2024-01-07T01:01:39.215Z,57.27
2024-01-07T01:02:39.118Z,56.05
2024-01-07T01:03:39.256Z,59.13
2024-01-07T01:04:39.295Z,58.00
2024-01-07T01:05:39.224Z,57.10
2024-01-07T01:06:39.240Z,57.30
2024-01-07T01:07:39.181Z,54.50
2024-01-07T01:08:39.190Z,55.11
2024-01-07T01:09:39.216Z,54.99
2024-01-07T01:10:39.215Z,53.04
2024-01-07T01:11:39.276Z,54.25
2024-01-07T01:12:39.306Z,52.56
2024-01-07T01:13:39.270Z,51.94
2024-01-07T01:14:39.291Z,52.27
2024-01-07T01:15:39.318Z,52.88
2024-01-07T01:16:39.410Z,55.46
2024-01-07T01:17:39.419Z,55.39
2024-01-07T01:18:39.455Z,51.56
2024-01-07T01:19:39.478Z,53.09
2024-01-07T01:20:39.395Z,52.63
2024-01-07T01:21:39.416Z,53.40
2024-01-07T01:22:39.409Z,51.04
2024-01-07T01:23:39.449Z,52.41
2024-01-07T01:24:39.464Z,51.97
2024-01-07T01:25:39.501Z,53.10
2024-01-07T01:26:39.472Z,53.84
2024-01-07T01:27:39.569Z,51.55
2024-01-07T01:28:39.629Z,54.88
2024-01-07T01:29:39.544Z,53.54
2024-01-07T01:30:39.655Z,54.04
2024-01-07T01:31:39.756Z,52.83
2024-01-07T01:32:39.719Z,52.94
2024-01-07T01:33:39.820Z,53.24
2024-01-07T01:34:39.743Z,52.11
2024-01-07T01:35:39.761Z,55.29
2024-01-07T01:36:39.845Z,54.09
2024-01-07T01:37:39.836Z,53.61
2024-01-07T01:38:58.490Z,50.00
2024-01-07T01:39:58.620Z,50.00
2024-01-07T01:40:58.489Z,50.00
2024-01-07T01:41:58.491Z,50.00
2024-01-07T01:42:58.527Z,50.00
2024-01-07T01:43:58.483Z,53.00
2024-01-07T01:44:58.466Z,52.13
2024-01-07T01:45:58.506Z,51.99
2024-01-07T01:46:58.477Z,51.09
2024-01-07T01:47:58.505Z,54.27
2024-01-07T01:48:58.547Z,53.38
2024-01-07T01:49:58.510Z,51.14
2024-01-07T01:50:58.533Z,53.71
2024-01-07T01:51:58.564Z,52.50
2024-01-07T01:52:58.438Z,53.68
2024-01-07T01:53:58.424Z,54.07
2024-01-07T01:54:58.441Z,52.87
2024-01-07T01:55:58.409Z,50.00
2024-01-07T01:56:58.428Z,50.84
2024-01-07T01:57:58.459Z,51.23
2024-01-07T01:58:58.400Z,51.29
2024-01-07T01:59:58.365Z,52.13
2024-01-07T02:00:58.478Z,53.92
2024-01-07T02:01:58.399Z,51.29
2024-01-07T02:02:58.474Z,51.92
2024-01-07T02:03:58.405Z,52.98
2024-01-07T02:04:58.457Z,53.30
2024-01-07T02:05:58.339Z,52.84
2024-01-07T02:06:58.359Z,53.31
2024-01-07T02:07:58.320Z,53.68
2024-01-07T02:08:58.312Z,52.29
2024-01-07T02:09:58.354Z,50.00
2024-01-07T02:10:58.287Z,52.30
2024-01-07T02:11:58.288Z,53.23
2024-01-07T02:12:58.295Z,53.19
2024-01-07T02:13:58.284Z,50.40
2024-01-07T02:14:58.350Z,51.26
2024-01-07T02:15:58.298Z,50.27
2024-01-07T02:16:58.245Z,52.74
2024-01-07T02:17:58.264Z,53.00
2024-01-07T02:18:58.320Z,54.47
2024-01-07T02:19:58.344Z,51.09
2024-01-07T02:20:58.205Z,51.51
2024-01-07T02:21:58.228Z,54.36
2024-01-07T02:22:58.196Z,52.78
2024-01-07T02:23:58.217Z,54.54
2024-01-07T02:24:58.187Z,51.78
2024-01-07T02:25:58.170Z,56.49
2024-01-07T02:26:58.261Z,56.12
2024-01-07T02:27:58.272Z,54.43
2024-01-07T02:28:58.205Z,53.26
2024-01-07T02:29:58.264Z,55.66
2024-01-07T02:30:58.354Z,54.30
2024-01-07T02:31:58.300Z,52.62
2024-01-07T02:32:58.401Z,54.29
2024-01-07T02:33:58.509Z,52.91
2024-01-07T02:34:58.378Z,54.65
2024-01-07T02:35:58.431Z,56.97
2024-01-07T02:36:58.513Z,54.34
2024-01-07T02:37:58.481Z,54.82
2024-01-07T02:38:58.604Z,53.09
2024-01-07T02:40:01.376Z,53.96
2024-01-07T02:40:58.520Z,54.25
2024-01-07T02:41:58.511Z,53.89
2024-01-07T02:42:58.504Z,55.95
2024-01-07T02:43:58.484Z,53.43
2024-01-07T02:44:58.494Z,52.25
2024-01-07T02:45:58.514Z,52.96
2024-01-07T02:46:58.460Z,54.86
2024-01-07T02:47:58.486Z,50.84
2024-01-07T02:48:58.483Z,52.85
2024-01-07T02:49:58.591Z,54.11
2024-01-07T02:50:58.448Z,51.77
2024-01-07T02:51:58.422Z,54.55
2024-01-07T02:52:58.381Z,52.89
2024-01-07T02:53:58.369Z,50.89
2024-01-07T02:54:58.496Z,53.09
2024-01-07T02:55:58.355Z,53.53
2024-01-07T02:56:58.336Z,54.93
2024-01-07T02:57:58.347Z,53.94
2024-01-07T02:58:58.327Z,53.01
2024-01-07T02:59:58.315Z,55.34
2024-01-07T03:00:58.399Z,52.83
2024-01-07T03:01:58.428Z,54.61
2024-01-07T03:02:58.325Z,54.83
2024-01-07T03:03:58.344Z,56.68
2024-01-07T03:04:58.284Z,55.23
2024-01-07T03:05:58.300Z,56.87
2024-01-07T03:06:58.304Z,52.82
2024-01-07T03:07:58.229Z,55.43
2024-01-07T03:08:58.225Z,55.62
2024-01-07T03:09:58.268Z,55.50
2024-01-07T03:10:58.221Z,54.37
2024-01-07T03:11:58.200Z,54.05
2024-01-07T03:12:58.205Z,52.63
2024-01-07T03:13:58.239Z,55.69
2024-01-07T03:14:58.157Z,55.91
2024-01-07T03:15:58.201Z,53.68
2024-01-07T03:16:58.132Z,57.58
2024-01-07T03:17:58.169Z,56.91
2024-01-07T03:18:58.184Z,52.75
2024-01-07T03:19:58.080Z,56.72
2024-01-07T03:20:58.096Z,55.64
2024-01-07T03:21:58.090Z,57.47
2024-01-07T03:22:58.058Z,56.65
2024-01-07T03:23:58.060Z,54.15
2024-01-07T03:24:58.143Z,55.45
2024-01-07T03:25:58.190Z,55.95
2024-01-07T03:26:58.129Z,54.44
2024-01-07T03:27:58.228Z,54.54
2024-01-07T03:28:58.182Z,55.21
2024-01-07T03:29:58.209Z,56.33
2024-01-07T03:30:58.307Z,55.67
2024-01-07T03:31:58.251Z,58.07
2024-01-07T03:32:58.380Z,58.75
2024-01-07T03:33:58.493Z,58.27
2024-01-07T03:34:58.381Z,55.60
2024-01-07T03:35:58.380Z,56.73
2024-01-07T03:36:58.512Z,56.41
2024-01-07T03:37:58.542Z,57.71
2024-01-07T03:38:58.487Z,54.14
2024-01-07T03:39:58.576Z,56.88
2024-01-07T03:40:58.531Z,57.56
2024-01-07T03:41:58.567Z,57.72
2024-01-07T03:42:58.614Z,55.59
2024-01-07T03:43:58.635Z,58.93
2024-01-07T03:44:58.645Z,56.03
2024-01-07T03:45:58.769Z,58.77
2024-01-07T03:46:58.716Z,55.28
2024-01-07T03:47:58.800Z,60.75
2024-01-07T03:48:58.957Z,57.46
2024-01-07T03:49:58.894Z,58.95
2024-01-07T03:50:58.843Z,56.67
2024-01-07T03:51:58.954Z,57.86
2024-01-07T03:52:58.913Z,57.92
2024-01-07T03:53:58.925Z,59.39
2024-01-07T03:54:59.008Z,57.08
2024-01-07T03:55:58.993Z,57.60
2024-01-07T03:56:59.041Z,56.90
2024-01-07T03:57:59.095Z,60.26
2024-01-07T03:58:59.115Z,59.80
2024-01-07T03:59:59.132Z,57.80
2024-01-07T04:00:59.267Z,58.78
2024-01-07T04:01:59.400Z,61.05
2024-01-07T04:02:59.258Z,61.92
2024-01-07T04:03:59.405Z,62.06
2024-01-07T04:04:59.285Z,59.37
2024-01-07T04:05:59.359Z,61.51
2024-01-07T04:06:59.413Z,60.11
2024-01-07T04:07:59.406Z,58.59
2024-01-07T04:08:59.432Z,57.79
2024-01-07T04:09:59.497Z,60.42
2024-01-07T04:10:59.490Z,57.81
2024-01-07T04:11:59.542Z,60.49
2024-01-07T04:12:59.561Z,58.01
2024-01-07T04:13:59.688Z,61.24
2024-01-07T04:14:59.603Z,60.05
2024-01-07T04:15:59.701Z,58.53
2024-01-07T04:16:59.677Z,58.67
2024-01-07T04:17:59.806Z,61.63
2024-01-07T04:18:59.833Z,59.91
2024-01-07T04:19:59.863Z,59.00
2024-01-07T04:20:59.828Z,62.19
2024-01-07T04:21:59.874Z,60.60
2024-01-07T04:22:59.880Z,59.33
2024-01-07T04:23:59.924Z,62.48
2024-01-07T04:24:59.965Z,60.64
2024-01-07T04:26:00.049Z,58.51
2024-01-07T04:27:00.017Z,59.55
2024-01-07T04:28:00.070Z,60.25
2024-01-07T04:29:00.071Z,58.76
2024-01-07T04:30:00.132Z,58.12
2024-01-07T04:31:00.263Z,56.58
2024-01-07T04:32:07.560Z,50.00
2024-01-07T04:33:07.618Z,50.00
2024-01-07T04:34:07.685Z,50.00
2024-01-07T04:35:07.749Z,50.00
2024-01-07T04:36:07.579Z,50.00
2024-01-07T04:37:07.715Z,53.11
2024-01-07T04:38:07.590Z,50.03
2024-01-07T04:39:07.590Z,54.90
2024-01-07T04:40:07.745Z,51.66
2024-01-07T04:41:07.608Z,55.30
2024-01-07T04:42:09.402Z,53.20
2024-01-07T04:43:07.682Z,53.24
2024-01-07T04:44:07.630Z,53.45
2024-01-07T04:45:07.630Z,52.77
2024-01-07T04:46:07.774Z,51.01
2024-01-07T04:47:07.633Z,52.38
2024-01-07T04:48:07.679Z,50.22
2024-01-07T04:49:07.879Z,51.64
2024-01-07T04:50:07.618Z,52.16
2024-01-07T04:51:07.655Z,50.68
2024-01-07T04:52:07.690Z,50.00
2024-01-07T04:53:07.624Z,51.30
2024-01-07T04:54:07.627Z,51.49
2024-01-07T04:55:07.762Z,51.20
2024-01-07T04:56:07.638Z,51.82
2024-01-07T04:57:07.626Z,52.45
2024-01-07T04:58:07.745Z,51.84
2024-01-07T04:59:07.637Z,50.99
2024-01-07T05:00:07.626Z,51.65
2024-01-07T05:01:07.800Z,50.00
2024-01-07T05:02:07.644Z,53.49
2024-01-07T05:03:07.700Z,55.82
2024-01-07T05:04:07.688Z,55.56
2024-01-07T05:05:07.640Z,56.99
2024-01-07T05:06:07.651Z,57.50
2024-01-07T05:07:07.638Z,58.20
2024-01-07T05:08:07.639Z,57.85
2024-01-07T05:09:07.673Z,59.02
2024-01-07T05:10:07.732Z,58.50
2024-01-07T05:11:07.640Z,57.21
2024-01-07T05:12:07.680Z,60.69
2024-01-07T05:13:07.790Z,56.43
2024-01-07T05:14:07.627Z,61.31
2024-01-07T05:15:07.615Z,58.72
2024-01-07T05:16:07.660Z,60.11
2024-01-07T05:17:07.598Z,61.46
2024-01-07T05:18:07.665Z,61.09
2024-01-07T05:19:07.670Z,60.07
2024-01-07T05:20:07.743Z,59.76
2024-01-07T05:21:07.607Z,61.69
2024-01-07T05:22:07.702Z,63.10
2024-01-07T05:23:07.587Z,62.33
2024-01-07T05:24:07.610Z,60.90
2024-01-07T05:25:07.714Z,64.32
2024-01-07T05:26:07.593Z,59.18
2024-01-07T05:27:07.586Z,61.93
2024-01-07T05:28:07.771Z,60.67
2024-01-07T05:29:07.584Z,62.25
2024-01-07T05:30:07.681Z,61.06
2024-01-07T05:31:07.695Z,62.65
2024-01-07T05:32:07.598Z,60.67
2024-01-07T05:33:07.757Z,61.46
2024-01-07T05:34:07.742Z,60.24
2024-01-07T05:35:08.597Z,60.30
2024-01-07T05:36:07.595Z,60.77
2024-01-07T05:37:07.737Z,61.62
2024-01-07T05:38:07.609Z,62.95
2024-01-07T05:39:07.579Z,62.47
2024-01-07T05:40:07.779Z,63.81
2024-01-07T05:41:07.588Z,63.68
2024-01-07T05:42:07.572Z,64.06
2024-01-07T05:43:07.651Z,63.60
2024-01-07T05:44:07.607Z,65.08
2024-01-07T05:45:07.606Z,64.76
2024-01-07T05:46:07.826Z,65.28
2024-01-07T05:47:07.610Z,62.43
2024-01-07T05:48:07.673Z,62.81
2024-01-07T05:49:07.819Z,63.44
2024-01-07T05:50:07.676Z,62.96
2024-01-07T05:51:07.663Z,65.20
2024-01-07T05:52:07.698Z,62.38
2024-01-07T05:53:07.646Z,62.54
2024-01-07T05:54:07.636Z,62.54
2024-01-07T05:55:07.651Z,62.01
2024-01-07T05:56:07.628Z,63.15
2024-01-07T05:57:07.632Z,63.05
2024-01-07T05:58:07.701Z,62.80
2024-01-07T05:59:07.685Z,60.08
2024-01-07T06:00:07.709Z,62.79
2024-01-07T06:01:07.964Z,61.95
2024-01-07T06:02:07.847Z,60.85
2024-01-07T06:03:07.827Z,59.94
2024-01-07T06:04:07.938Z,61.56
2024-01-07T06:05:07.906Z,60.82
2024-01-07T06:06:07.966Z,56.94
2024-01-07T06:07:07.998Z,59.97
2024-01-07T06:08:08.098Z,60.28
2024-01-07T06:09:07.936Z,60.07
2024-01-07T06:10:08.099Z,59.00
2024-01-07T06:11:08.050Z,58.24
2024-01-07T06:12:08.014Z,58.96
2024-01-07T06:13:08.205Z,58.39
2024-01-07T06:14:08.099Z,57.93
2024-01-07T06:15:08.118Z,58.99
2024-01-07T06:16:08.256Z,58.63
2024-01-07T06:17:08.170Z,57.75
2024-01-07T06:18:08.365Z,59.11
2024-01-07T06:19:08.338Z,59.50
2024-01-07T06:20:08.419Z,58.11
2024-01-07T06:21:08.291Z,58.93
2024-01-07T06:22:08.385Z,58.48
2024-01-07T06:23:08.369Z,59.12
2024-01-07T06:24:08.385Z,58.19
2024-01-07T06:25:08.566Z,58.41
2024-01-07T06:26:08.452Z,58.31
2024-01-07T06:27:08.496Z,59.61
2024-01-07T06:28:08.658Z,57.18
2024-01-07T06:29:08.536Z,61.20
2024-01-07T06:30:08.636Z,61.55
2024-01-07T06:31:08.718Z,60.30
2024-01-07T06:32:08.653Z,60.40
2024-01-07T06:33:08.769Z,60.50
2024-01-07T06:34:08.837Z,61.36
2024-01-07T06:35:08.745Z,61.34
2024-01-07T06:36:08.804Z,60.07
2024-01-07T06:37:09.043Z,61.93
2024-01-07T06:38:08.872Z,60.49
2024-01-07T06:39:08.940Z,58.57
2024-01-07T06:40:08.991Z,61.76
2024-01-07T06:41:08.973Z,62.18
2024-01-07T06:42:09.010Z,62.77
2024-01-07T06:43:09.187Z,62.26
2024-01-07T06:44:09.078Z,60.19
2024-01-07T06:45:09.110Z,61.19
2024-01-07T06:46:09.235Z,60.33
2024-01-07T06:47:09.189Z,57.72
2024-01-07T06:48:09.325Z,61.13
2024-01-07T06:49:09.401Z,60.88
2024-01-07T06:50:09.314Z,60.25
2024-01-07T06:51:09.355Z,62.42
2024-01-07T06:52:09.456Z,62.31
2024-01-07T06:53:09.391Z,61.74
2024-01-07T06:54:12.513Z,64.00
2024-01-07T06:55:09.531Z,63.40
2024-01-07T06:56:09.438Z,64.77
2024-01-07T06:57:09.434Z,65.51
2024-01-07T06:58:09.478Z,66.99
2024-01-07T06:59:09.447Z,68.04
2024-01-07T07:00:09.481Z,67.68
2024-01-07T07:01:09.619Z,69.49
2024-01-07T07:02:09.503Z,70.21
2024-01-07T07:03:09.541Z,68.81
2024-01-07T07:04:09.522Z,72.00
2024-01-07T07:05:09.472Z,72.94
2024-01-07T07:06:09.480Z,74.80
2024-01-07T07:07:09.536Z,74.65
2024-01-07T07:08:09.475Z,74.27
2024-01-07T07:09:09.466Z,73.24
2024-01-07T07:10:09.627Z,75.14
2024-01-07T07:11:09.475Z,74.93
2024-01-07T07:12:09.479Z,75.11
2024-01-07T07:13:09.568Z,74.41
2024-01-07T07:14:09.464Z,74.13
2024-01-07T07:15:09.467Z,74.44
2024-01-07T07:16:09.579Z,74.27
2024-01-07T07:17:09.475Z,73.04
2024-01-07T07:18:09.514Z,73.34
2024-01-07T07:19:09.651Z,70.68
2024-01-07T07:20:09.569Z,72.38
2024-01-07T07:21:09.501Z,69.72
2024-01-07T07:22:09.522Z,70.86
2024-01-07T07:23:09.473Z,70.39
2024-01-07T07:24:09.626Z,69.81
2024-01-07T07:25:09.585Z,70.39
2024-01-07T07:26:09.606Z,71.03
2024-01-07T07:27:09.603Z,69.31
2024-01-07T07:28:09.841Z,69.01
2024-01-07T07:29:09.700Z,69.07
2024-01-07T07:30:09.785Z,69.70
2024-01-07T07:31:09.865Z,68.16
2024-01-07T07:32:09.859Z,69.20
2024-01-07T07:33:09.883Z,65.48
2024-01-07T07:34:09.952Z,67.43
2024-01-07T07:35:09.893Z,67.13
2024-01-07T07:36:09.990Z,66.05
2024-01-07T07:37:09.973Z,67.70
2024-01-07T07:38:09.951Z,66.50
2024-01-07T07:39:09.978Z,67.61
2024-01-07T07:40:10.102Z,67.26
2024-01-07T07:41:10.081Z,65.80
2024-01-07T07:42:10.098Z,66.46
2024-01-07T07:43:10.186Z,67.54
2024-01-07T07:44:10.165Z,69.19
2024-01-07T07:45:10.191Z,67.21
2024-01-07T07:46:10.309Z,67.98
2024-01-07T07:47:10.277Z,68.09
2024-01-07T07:48:10.406Z,66.96
2024-01-07T07:49:10.396Z,64.83
2024-01-07T07:50:10.523Z,69.40
2024-01-07T07:51:10.407Z,69.82
2024-01-07T07:52:10.556Z,69.03
2024-01-07T07:53:10.474Z,68.46
2024-01-07T07:54:10.488Z,71.35
2024-01-07T07:55:10.594Z,69.87
2024-01-07T07:56:10.562Z,71.64
2024-01-07T07:57:10.623Z,72.81
2024-01-07T07:58:10.713Z,70.42
2024-01-07T07:59:10.773Z,72.22
2024-01-07T08:00:10.757Z,72.24
2024-01-07T08:01:10.821Z,69.90
2024-01-07T08:02:10.767Z,70.20
2024-01-07T08:03:10.823Z,71.90
2024-01-07T08:04:10.836Z,72.81
2024-01-07T08:05:10.981Z,70.96
2024-01-07T08:06:12.530Z,72.07
2024-01-07T08:07:11.015Z,71.60
2024-01-07T08:08:10.923Z,73.23
2024-01-07T08:09:10.964Z,72.07
2024-01-07T08:10:11.152Z,72.90
2024-01-07T08:11:11.129Z,72.22
2024-01-07T08:12:11.054Z,70.70
2024-01-07T08:13:11.180Z,72.86
2024-01-07T08:14:11.152Z,72.76
2024-01-07T08:15:11.183Z,70.07
2024-01-07T08:16:11.499Z,74.51
2024-01-07T08:17:11.254Z,72.33
2024-01-07T08:18:11.363Z,75.06
2024-01-07T08:19:11.378Z,74.17
2024-01-07T08:20:11.430Z,74.10
2024-01-07T08:21:11.395Z,74.31
2024-01-07T08:22:11.458Z,77.63
2024-01-07T08:23:11.609Z,75.73
2024-01-07T08:24:11.517Z,75.49
2024-01-07T08:25:11.564Z,78.36
2024-01-07T08:26:11.584Z,75.43
2024-01-07T08:27:11.606Z,76.57
2024-01-07T08:28:11.705Z,77.91
2024-01-07T08:29:11.675Z,75.39
2024-01-07T08:30:11.769Z,75.60
2024-01-07T08:31:11.811Z,78.78
2024-01-07T08:32:11.788Z,74.70
2024-01-07T08:33:11.895Z,79.22
2024-01-07T08:34:11.893Z,79.59
2024-01-07T08:35:11.956Z,81.01
2024-01-07T08:36:11.962Z,80.30
2024-01-07T08:37:12.108Z,80.45
2024-01-07T08:38:12.030Z,77.84
2024-01-07T08:39:12.041Z,79.43
2024-01-07T08:40:12.102Z,81.85
2024-01-07T08:41:12.123Z,81.64
2024-01-07T08:42:12.159Z,79.96
2024-01-07T08:43:12.229Z,79.99
2024-01-07T08:44:12.192Z,80.86
2024-01-07T08:45:12.245Z,81.83
2024-01-07T08:46:12.386Z,82.39
2024-01-07T08:47:12.405Z,83.09
2024-01-07T08:48:12.445Z,82.46
2024-01-07T08:49:12.503Z,82.65
2024-01-07T08:50:12.451Z,84.51
2024-01-07T08:51:12.428Z,83.68
2024-01-07T08:52:12.571Z,82.65
2024-01-07T08:53:12.517Z,85.37
2024-01-07T08:54:12.543Z,85.50
2024-01-07T08:55:12.758Z,85.35
2024-01-07T08:56:12.665Z,86.04
2024-01-07T08:57:12.647Z,86.23
2024-01-07T08:58:12.738Z,87.43
2024-01-07T08:59:12.828Z,87.18
2024-01-07T09:00:12.735Z,85.54
2024-01-07T09:01:12.875Z,84.57
2024-01-07T09:02:12.877Z,88.38
2024-01-07T09:03:12.889Z,88.63
2024-01-07T09:04:12.907Z,87.71
2024-01-07T09:05:12.950Z,88.92
2024-01-07T09:06:12.994Z,88.50
2024-01-07T09:07:12.998Z,89.62
2024-01-07T09:08:13.029Z,90.61
2024-01-07T09:09:13.062Z,90.86
2024-01-07T09:10:13.227Z,92.93
2024-01-07T09:11:13.244Z,91.12
2024-01-07T09:12:13.176Z,89.97
2024-01-07T09:13:13.268Z,90.85
2024-01-07T09:14:13.269Z,90.17
2024-01-07T09:15:13.279Z,89.59
2024-01-07T09:16:13.577Z,90.16
2024-01-07T09:17:13.345Z,90.97
2024-01-07T09:18:13.592Z,90.22
2024-01-07T09:19:15.036Z,91.21
2024-01-07T09:20:13.507Z,89.09
2024-01-07T09:21:13.530Z,89.13
2024-01-07T09:22:13.573Z,88.85
2024-01-07T09:23:13.568Z,88.38
2024-01-07T09:24:13.567Z,89.88
2024-01-07T09:25:13.655Z,88.67
2024-01-07T09:26:13.671Z,85.88
2024-01-07T09:27:13.667Z,87.62
2024-01-07T09:28:13.788Z,88.25
2024-01-07T09:29:13.758Z,88.53
2024-01-07T09:30:13.877Z,89.67
2024-01-07T09:31:13.949Z,89.09
2024-01-07T09:32:13.863Z,88.12
2024-01-07T09:33:14.036Z,88.72
2024-01-07T09:34:13.984Z,88.68
2024-01-07T09:35:13.972Z,91.39
2024-01-07T09:36:21.107Z,88.48
2024-01-07T09:37:15.071Z,88.57
2024-01-07T09:38:15.386Z,88.69
2024-01-07T09:39:13.997Z,89.08
2024-01-07T09:40:14.056Z,90.40
2024-01-07T09:41:14.034Z,92.13
2024-01-07T09:42:13.997Z,92.02
2024-01-07T09:43:14.037Z,90.25
2024-01-07T09:44:13.990Z,93.82
2024-01-07T09:45:13.989Z,90.75
2024-01-07T09:46:14.135Z,92.77
2024-01-07T09:47:14.071Z,94.76
2024-01-07T09:48:14.096Z,93.17
2024-01-07T09:49:14.137Z,91.49
2024-01-07T09:50:14.012Z,92.23
2024-01-07T09:51:14.045Z,92.42
2024-01-07T09:52:14.122Z,92.68
2024-01-07T09:53:14.027Z,90.54
2024-01-07T09:54:14.053Z,91.80
2024-01-07T09:55:14.185Z,90.47
2024-01-07T09:56:14.130Z,92.75
2024-01-07T09:57:14.137Z,88.61
2024-01-07T09:58:14.280Z,91.31
2024-01-07T09:59:14.204Z,90.38
2024-01-07T10:00:14.218Z,90.41
2024-01-07T10:01:14.404Z,87.71
2024-01-07T10:02:14.442Z,87.23
2024-01-07T10:03:14.342Z,90.71
2024-01-07T10:04:14.475Z,88.31
2024-01-07T10:05:14.362Z,88.16
2024-01-07T10:06:14.578Z,88.51
2024-01-07T10:07:14.527Z,87.01
2024-01-07T10:08:14.474Z,84.93
2024-01-07T10:09:14.501Z,86.63
2024-01-07T10:10:14.616Z,85.24
2024-01-07T10:11:14.557Z,84.31
2024-01-07T10:12:14.573Z,84.25
2024-01-07T10:13:14.702Z,82.84
2024-01-07T10:14:14.637Z,81.88
2024-01-07T10:15:14.670Z,84.93
2024-01-07T10:16:14.836Z,82.24
2024-01-07T10:17:14.712Z,82.82
2024-01-07T10:18:14.803Z,83.36
2024-01-07T10:19:14.819Z,81.33
2024-01-07T10:20:14.804Z,80.63
2024-01-07T10:21:14.868Z,82.38
2024-01-07T10:22:14.917Z,80.79
2024-01-07T10:23:14.897Z,81.44
2024-01-07T10:24:14.987Z,80.89
2024-01-07T10:25:15.030Z,78.10
2024-01-07T10:26:20.381Z,79.53
2024-01-07T10:27:15.985Z,79.57
2024-01-07T10:28:15.030Z,79.55
2024-01-07T10:29:15.005Z,76.26
2024-01-07T10:30:15.018Z,76.21
2024-01-07T10:31:15.365Z,73.72
2024-01-07T10:32:15.015Z,74.53
2024-01-07T10:33:15.067Z,72.27
2024-01-07T10:34:15.105Z,72.55
2024-01-07T10:35:15.030Z,70.76
2024-01-07T10:36:15.005Z,71.00
2024-01-07T10:37:15.044Z,69.58
2024-01-07T10:38:15.019Z,68.97
2024-01-07T10:39:15.009Z,68.05
2024-01-07T10:40:15.169Z,68.56
2024-01-07T10:41:15.044Z,67.29
2024-01-07T10:42:15.036Z,65.38
2024-01-07T10:43:15.083Z,66.07
2024-01-07T10:44:16.746Z,66.96
2024-01-07T10:45:15.067Z,67.87
2024-01-07T10:46:15.138Z,65.12
2024-01-07T10:47:15.043Z,64.76
2024-01-07T10:48:15.116Z,63.56
2024-01-07T10:49:15.197Z,65.47
2024-01-07T10:50:15.110Z,64.09
2024-01-07T10:51:15.146Z,60.16
2024-01-07T10:52:15.185Z,63.70
2024-01-07T10:53:15.151Z,63.16
2024-01-07T10:54:15.181Z,64.69
2024-01-07T10:55:15.302Z,63.19
2024-01-07T10:56:15.239Z,61.40
2024-01-07T10:57:15.248Z,61.30
2024-01-07T10:58:15.324Z,61.82
2024-01-07T10:59:15.304Z,60.35
2024-01-07T11:00:15.342Z,58.95
2024-01-07T11:01:15.423Z,63.01
2024-01-07T11:02:15.640Z,59.94
2024-01-07T11:03:15.460Z,61.38
2024-01-07T11:04:15.562Z,57.56
2024-01-07T11:05:15.473Z,58.79
2024-01-07T11:06:15.498Z,59.20
2024-01-07T11:07:15.580Z,56.97
2024-01-07T11:08:15.519Z,56.92
2024-01-07T11:09:15.560Z,58.04
2024-01-07T11:10:15.643Z,57.54
2024-01-07T11:11:15.607Z,57.32
2024-01-07T11:12:15.624Z,57.49
2024-01-07T11:13:15.749Z,55.66
2024-01-07T11:14:15.670Z,54.84
2024-01-07T11:15:15.727Z,55.86
2024-01-07T11:16:15.934Z,50.70
2024-01-07T11:17:15.759Z,52.63
2024-01-07T11:18:15.853Z,52.85
2024-01-07T11:19:15.911Z,52.77
2024-01-07T11:20:15.815Z,54.52
2024-01-07T11:21:15.856Z,51.19
2024-01-07T11:22:15.998Z,51.50
2024-01-07T11:23:15.936Z,54.47
2024-01-07T11:24:15.917Z,53.30
2024-01-07T11:25:16.028Z,51.52
2024-01-07T11:26:15.984Z,53.93
2024-01-07T11:27:16.011Z,53.37
2024-01-07T11:28:16.050Z,54.68
2024-01-07T11:29:16.044Z,50.38
2024-01-07T11:30:16.058Z,50.73
2024-01-07T11:31:16.282Z,52.46
2024-01-07T11:32:16.094Z,51.40
2024-01-07T11:33:16.272Z,54.91
2024-01-07T11:34:16.207Z,50.99
2024-01-07T11:35:16.234Z,55.40
2024-01-07T11:36:16.188Z,53.60
2024-01-07T11:37:16.343Z,51.55
2024-01-07T11:38:16.207Z,50.00
2024-01-07T11:39:16.241Z,54.40
2024-01-07T11:40:16.438Z,53.10
2024-01-07T11:41:16.282Z,51.89
2024-01-07T11:42:16.276Z,50.25
2024-01-07T11:43:16.322Z,51.66
2024-01-07T11:44:16.370Z,56.52
2024-01-07T11:45:16.350Z,52.93
2024-01-07T11:46:16.445Z,55.47
2024-01-07T11:47:16.388Z,53.95
2024-01-07T11:48:16.458Z,54.46
2024-01-07T11:49:16.497Z,53.12
2024-01-07T11:50:16.466Z,54.09
2024-01-07T11:51:16.459Z,51.51
2024-01-07T11:52:16.532Z,50.29
2024-01-07T11:53:16.529Z,53.16
2024-01-07T11:54:16.538Z,50.14
2024-01-07T11:55:16.642Z,54.71
2024-01-07T11:56:16.587Z,53.50
2024-01-07T11:57:16.619Z,51.40
2024-01-07T11:58:16.716Z,51.14
2024-01-07T11:59:16.650Z,50.16
2024-01-07T12:00:16.703Z,51.42
2024-01-07T12:01:16.781Z,51.31
2024-01-07T12:02:16.762Z,55.22
2024-01-07T12:03:16.758Z,53.05
2024-01-07T12:04:16.837Z,55.72
2024-01-07T12:05:16.903Z,54.43
2024-01-07T12:06:16.864Z,52.54
2024-01-07T12:07:16.933Z,51.05
2024-01-07T12:08:16.844Z,53.85
2024-01-07T12:09:16.845Z,52.87
2024-01-07T12:10:16.966Z,53.59
2024-01-07T12:11:16.883Z,51.37
2024-01-07T12:12:16.889Z,52.76
2024-01-07T12:13:17.050Z,52.94
2024-01-07T12:14:16.914Z,52.08
2024-01-07T12:15:16.931Z,52.53
2024-01-07T12:16:16.977Z,52.36
2024-01-07T12:17:16.974Z,54.86
2024-01-07T12:18:17.102Z,51.15
2024-01-07T12:19:17.155Z,52.55
2024-01-07T12:20:17.007Z,52.23
2024-01-07T12:21:17.029Z,55.07
2024-01-07T12:22:17.103Z,50.48
2024-01-07T12:23:17.067Z,52.73
2024-01-07T12:24:17.077Z,51.57
2024-01-07T12:25:17.130Z,52.16
2024-01-07T12:26:17.131Z,54.26
2024-01-07T12:27:17.148Z,54.20
2024-01-07T12:28:17.173Z,52.11
2024-01-07T12:29:17.160Z,53.27
2024-01-07T12:30:17.216Z,51.87
2024-01-07T12:31:17.391Z,53.74
2024-01-07T12:32:17.221Z,52.40
2024-01-07T12:33:17.324Z,50.00
2024-01-07T12:34:17.361Z,52.60
2024-01-07T12:35:17.477Z,51.88
2024-01-07T12:36:17.270Z,54.81
2024-01-07T12:37:17.352Z,52.57
2024-01-07T12:38:17.313Z,54.71
2024-01-07T12:39:17.324Z,53.75
2024-01-07T12:40:17.465Z,53.39
2024-01-07T12:41:17.378Z,53.33
2024-01-07T12:42:17.368Z,53.39
2024-01-07T12:43:17.419Z,51.89
2024-01-07T12:44:17.402Z,54.60
2024-01-07T12:45:17.453Z,52.68
2024-01-07T12:46:17.569Z,53.88
2024-01-07T12:47:17.474Z,51.16
2024-01-07T12:48:17.634Z,52.87
2024-01-07T12:49:17.552Z,54.57
2024-01-07T12:50:17.514Z,55.39
2024-01-07T12:51:19.378Z,57.91
2024-01-07T12:52:17.596Z,52.94
2024-01-07T12:53:17.562Z,54.37